sensor_id;sensor_type;location;lat;lon;timestamp;pressure;altitude;pressure_sealevel;temperature;humidity
23867;BME280;12114;53.404;-1.502;2023-12-20T00:01:34;100885.63;;;8.93;100.00
23867;BME280;12114;53.404;-1.502;2023-12-20T00:04:18;100879.13;;;8.89;100.00
23867;BME280;12114;53.404;-1.502;2023-12-20T00:07:03;100871.19;;;9.08;100.00
23867;BME280;12114;53.404;-1.502;2023-12-20T00:09:47;100872.53;;;9.23;100.00
23867;BME280;12114;53.404;-1.502;2023-12-20T00:12:31;100873.88;;;9.17;100.00
23867;BME280;12114;53.404;-1.502;2023-12-20T00:15:15;100876.03;;;9.32;100.00
23867;BME280;12114;53.404;-1.502;2023-12-20T00:17:59;100873.03;;;9.37;100.00
23867;BME280;12114;53.404;-1.502;2023-12-20T00:20:44;100863.91;;;9.37;100.00
23867;BME280;12114;53.404;-1.502;2023-12-20T00:23:29;100873.31;;;9.44;100.00
23867;BME280;12114;53.404;-1.502;2023-12-20T00:26:13;100870.19;;;9.46;100.00
23867;BME280;12114;53.404;-1.502;2023-12-20T00:28:57;100880.88;;;9.56;100.00
23867;BME280;12114;53.404;-1.502;2023-12-20T00:31:41;100879.13;;;9.51;100.00
23867;BME280;12114;53.404;-1.502;2023-12-20T00:34:25;100876.72;;;9.62;100.00
23867;BME280;12114;53.404;-1.502;2023-12-20T00:37:09;100888.97;;;9.61;100.00
23867;BME280;12114;53.404;-1.502;2023-12-20T00:39:53;100871.19;;;9.62;100.00
23867;BME280;12114;53.404;-1.502;2023-12-20T00:42:37;100885.41;;;9.60;100.00
23867;BME280;12114;53.404;-1.502;2023-12-20T00:45:21;100883.41;;;9.61;100.00
23867;BME280;12114;53.404;-1.502;2023-12-20T00:48:05;100873.91;;;9.50;100.00
23867;BME280;12114;53.404;-1.502;2023-12-20T00:50:50;100884.78;;;9.55;100.00
23867;BME280;12114;53.404;-1.502;2023-12-20T00:53:34;100893.78;;;9.52;100.00
23867;BME280;12114;53.404;-1.502;2023-12-20T00:56:18;100879.22;;;9.55;100.00
23867;BME280;12114;53.404;-1.502;2023-12-20T00:59:02;100877.88;;;9.61;100.00
23867;BME280;12114;53.404;-1.502;2023-12-20T01:01:46;100890.59;;;9.62;100.00
23867;BME280;12114;53.404;-1.502;2023-12-20T01:04:30;100877.97;;;9.52;100.00
23867;BME280;12114;53.404;-1.502;2023-12-20T01:07:14;100881.31;;;9.58;100.00
23867;BME280;12114;53.404;-1.502;2023-12-20T01:09:58;100872.44;;;9.64;100.00
23867;BME280;12114;53.404;-1.502;2023-12-20T01:12:41;100867.84;;;9.68;100.00
23867;BME280;12114;53.404;-1.502;2023-12-20T01:15:25;100867.84;;;9.68;100.00
23867;BME280;12114;53.404;-1.502;2023-12-20T01:18:10;100867.44;;;9.78;100.00
23867;BME280;12114;53.404;-1.502;2023-12-20T01:20:53;100859.25;;;9.61;100.00
23867;BME280;12114;53.404;-1.502;2023-12-20T01:23:37;100865.44;;;9.46;100.00
23867;BME280;12114;53.404;-1.502;2023-12-20T01:26:21;100864.78;;;9.49;100.00
23867;BME280;12114;53.404;-1.502;2023-12-20T01:29:05;100860.31;;;9.57;100.00
23867;BME280;12114;53.404;-1.502;2023-12-20T01:31:49;100860.44;;;9.60;100.00
23867;BME280;12114;53.404;-1.502;2023-12-20T01:34:34;100850.34;;;9.56;100.00
23867;BME280;12114;53.404;-1.502;2023-12-20T01:37:18;100862.59;;;9.55;100.00
23867;BME280;12114;53.404;-1.502;2023-12-20T01:40:03;100846.56;;;9.60;100.00
23867;BME280;12114;53.404;-1.502;2023-12-20T01:42:47;100848.72;;;9.55;100.00
23867;BME280;12114;53.404;-1.502;2023-12-20T01:45:31;100842.84;;;9.56;100.00
23867;BME280;12114;53.404;-1.502;2023-12-20T01:48:15;100836.97;;;9.70;100.00
23867;BME280;12114;53.404;-1.502;2023-12-20T01:51:00;100842.28;;;9.63;100.00
23867;BME280;12114;53.404;-1.502;2023-12-20T01:53:46;100841.25;;;9.67;100.00
23867;BME280;12114;53.404;-1.502;2023-12-20T01:56:31;100837.22;;;9.77;100.00
23867;BME280;12114;53.404;-1.502;2023-12-20T01:59:19;100829.63;;;9.86;100.00
23867;BME280;12114;53.404;-1.502;2023-12-20T02:02:04;100832.13;;;9.79;100.00
23867;BME280;12114;53.404;-1.502;2023-12-20T02:04:48;100830.75;;;9.73;100.00
23867;BME280;12114;53.404;-1.502;2023-12-20T02:07:34;100834.88;;;9.67;100.00
23867;BME280;12114;53.404;-1.502;2023-12-20T02:10:18;100817.69;;;9.73;100.00
23867;BME280;12114;53.404;-1.502;2023-12-20T02:13:03;100818.03;;;9.72;100.00
23867;BME280;12114;53.404;-1.502;2023-12-20T02:15:48;100816.75;;;9.69;100.00
23867;BME280;12114;53.404;-1.502;2023-12-20T02:18:32;100801.50;;;9.63;100.00
23867;BME280;12114;53.404;-1.502;2023-12-20T02:21:16;100807.81;;;9.64;100.00
23867;BME280;12114;53.404;-1.502;2023-12-20T02:24:00;100805.75;;;9.61;100.00
23867;BME280;12114;53.404;-1.502;2023-12-20T02:26:44;100811.13;;;9.78;100.00
23867;BME280;12114;53.404;-1.502;2023-12-20T02:29:28;100810.72;;;9.67;100.00
23867;BME280;12114;53.404;-1.502;2023-12-20T02:32:12;100815.16;;;9.80;100.00
23867;BME280;12114;53.404;-1.502;2023-12-20T02:34:58;100820.38;;;9.94;100.00
23867;BME280;12114;53.404;-1.502;2023-12-20T02:37:42;100816.31;;;9.79;100.00
23867;BME280;12114;53.404;-1.502;2023-12-20T02:40:26;100806.97;;;9.84;100.00
23867;BME280;12114;53.404;-1.502;2023-12-20T02:43:09;100807.66;;;9.81;100.00
23867;BME280;12114;53.404;-1.502;2023-12-20T02:45:53;100820.28;;;9.91;100.00
23867;BME280;12114;53.404;-1.502;2023-12-20T02:48:37;100807.28;;;9.82;100.00
23867;BME280;12114;53.404;-1.502;2023-12-20T02:51:21;100814.81;;;9.82;100.00
23867;BME280;12114;53.404;-1.502;2023-12-20T02:54:05;100820.59;;;9.89;100.00
23867;BME280;12114;53.404;-1.502;2023-12-20T02:56:49;100810.44;;;9.81;100.00
23867;BME280;12114;53.404;-1.502;2023-12-20T02:59:33;100819.09;;;9.79;100.00
23867;BME280;12114;53.404;-1.502;2023-12-20T03:02:17;100823.03;;;9.78;100.00
23867;BME280;12114;53.404;-1.502;2023-12-20T03:05:02;100819.78;;;9.76;100.00
23867;BME280;12114;53.404;-1.502;2023-12-20T03:07:46;100822.41;;;9.73;100.00
23867;BME280;12114;53.404;-1.502;2023-12-20T03:10:30;100818.94;;;9.76;100.00
23867;BME280;12114;53.404;-1.502;2023-12-20T03:13:14;100807.06;;;9.75;100.00
23867;BME280;12114;53.404;-1.502;2023-12-20T03:15:58;100818.03;;;9.72;100.00
23867;BME280;12114;53.404;-1.502;2023-12-20T03:18:42;100797.69;;;9.80;100.00
23867;BME280;12114;53.404;-1.502;2023-12-20T03:21:26;100789.38;;;9.80;100.00
23867;BME280;12114;53.404;-1.502;2023-12-20T03:24:10;100808.34;;;9.78;100.00
23867;BME280;12114;53.404;-1.502;2023-12-20T03:26:54;100807.75;;;9.72;100.00
23867;BME280;12114;53.404;-1.502;2023-12-20T03:29:38;100815.75;;;9.86;100.00
23867;BME280;12114;53.404;-1.502;2023-12-20T03:32:22;100825.44;;;9.80;100.00
23867;BME280;12114;53.404;-1.502;2023-12-20T03:35:06;100824.72;;;9.71;100.00
23867;BME280;12114;53.404;-1.502;2023-12-20T03:37:50;100847.56;;;9.56;100.00
23867;BME280;12114;53.404;-1.502;2023-12-20T03:40:34;100839.38;;;9.59;100.00
23867;BME280;12114;53.404;-1.502;2023-12-20T03:43:18;100835.13;;;9.62;100.00
23867;BME280;12114;53.404;-1.502;2023-12-20T03:46:03;100819.75;;;9.64;100.00
23867;BME280;12114;53.404;-1.502;2023-12-20T03:48:47;100812.22;;;9.65;100.00
23867;BME280;12114;53.404;-1.502;2023-12-20T03:51:31;100807.75;;;9.72;100.00
23867;BME280;12114;53.404;-1.502;2023-12-20T03:54:15;100817.22;;;9.71;100.00
23867;BME280;12114;53.404;-1.502;2023-12-20T03:56:59;100809.22;;;9.70;100.00
23867;BME280;12114;53.404;-1.502;2023-12-20T03:59:43;100814.34;;;9.80;100.00
23867;BME280;12114;53.404;-1.502;2023-12-20T04:02:27;100798.28;;;9.85;100.00
23867;BME280;12114;53.404;-1.502;2023-12-20T04:05:11;100812.81;;;9.70;100.00
23867;BME280;12114;53.404;-1.502;2023-12-20T04:07:55;100808.31;;;9.66;100.00
23867;BME280;12114;53.404;-1.502;2023-12-20T04:10:39;100821.03;;;9.79;100.00
23867;BME280;12114;53.404;-1.502;2023-12-20T04:13:23;100804.84;;;9.69;100.00
23867;BME280;12114;53.404;-1.502;2023-12-20T04:16:07;100802.41;;;9.67;100.00
23867;BME280;12114;53.404;-1.502;2023-12-20T04:18:51;100791.78;;;9.69;100.00
23867;BME280;12114;53.404;-1.502;2023-12-20T04:21:35;100787.53;;;9.72;100.00
23867;BME280;12114;53.404;-1.502;2023-12-20T04:24:19;100768.31;;;9.79;100.00
23867;BME280;12114;53.404;-1.502;2023-12-20T04:27:03;100771.56;;;9.81;100.00
23867;BME280;12114;53.404;-1.502;2023-12-20T04:29:48;100769.81;;;9.76;100.00
23867;BME280;12114;53.404;-1.502;2023-12-20T04:32:32;100765.78;;;9.74;100.00
23867;BME280;12114;53.404;-1.502;2023-12-20T04:35:16;100773.41;;;9.65;100.00
23867;BME280;12114;53.404;-1.502;2023-12-20T04:38:00;100773.06;;;9.66;100.00
23867;BME280;12114;53.404;-1.502;2023-12-20T04:40:44;100764.50;;;9.71;100.00
23867;BME280;12114;53.404;-1.502;2023-12-20T04:43:28;100775.47;;;9.56;100.00
23867;BME280;12114;53.404;-1.502;2023-12-20T04:46:13;100791.09;;;9.60;100.00
23867;BME280;12114;53.404;-1.502;2023-12-20T04:48:57;100796.63;;;9.60;100.00
23867;BME280;12114;53.404;-1.502;2023-12-20T04:51:41;100803.41;;;9.51;100.00
23867;BME280;12114;53.404;-1.502;2023-12-20T04:54:25;100805.41;;;9.62;100.00
23867;BME280;12114;53.404;-1.502;2023-12-20T04:57:09;100802.63;;;9.62;100.00
23867;BME280;12114;53.404;-1.502;2023-12-20T04:59:53;100813.84;;;9.54;100.00
23867;BME280;12114;53.404;-1.502;2023-12-20T05:02:37;100797.22;;;9.66;100.00
23867;BME280;12114;53.404;-1.502;2023-12-20T05:05:21;100808.63;;;9.52;100.00
23867;BME280;12114;53.404;-1.502;2023-12-20T05:08:05;100807.22;;;9.46;100.00
23867;BME280;12114;53.404;-1.502;2023-12-20T05:10:49;100804.31;;;9.43;100.00
23867;BME280;12114;53.404;-1.502;2023-12-20T05:13:34;100809.34;;;9.28;100.00
23867;BME280;12114;53.404;-1.502;2023-12-20T05:16:17;100823.06;;;9.25;100.00
23867;BME280;12114;53.404;-1.502;2023-12-20T05:19:05;100818.34;;;9.25;100.00
23867;BME280;12114;53.404;-1.502;2023-12-20T05:21:50;100815.13;;;9.23;100.00
23867;BME280;12114;53.404;-1.502;2023-12-20T05:24:34;100812.97;;;9.08;100.00
23867;BME280;12114;53.404;-1.502;2023-12-20T05:27:18;100825.19;;;9.07;100.00
23867;BME280;12114;53.404;-1.502;2023-12-20T05:30:02;100810.25;;;9.20;100.00
23867;BME280;12114;53.404;-1.502;2023-12-20T05:32:48;100817.41;;;9.21;100.00
23867;BME280;12114;53.404;-1.502;2023-12-20T05:35:32;100796.97;;;9.26;100.00
23867;BME280;12114;53.404;-1.502;2023-12-20T05:38:16;100808.44;;;9.37;100.00
23867;BME280;12114;53.404;-1.502;2023-12-20T05:41:00;100785.34;;;9.32;100.00
23867;BME280;12114;53.404;-1.502;2023-12-20T05:43:45;100778.75;;;9.37;100.00
23867;BME280;12114;53.404;-1.502;2023-12-20T05:46:29;100762.13;;;9.37;100.00
23867;BME280;12114;53.404;-1.502;2023-12-20T05:49:16;100773.22;;;9.37;100.00
23867;BME280;12114;53.404;-1.502;2023-12-20T05:52:01;100770.34;;;9.46;100.00
23867;BME280;12114;53.404;-1.502;2023-12-20T05:54:45;100767.56;;;9.46;100.00
23867;BME280;12114;53.404;-1.502;2023-12-20T05:57:29;100760.66;;;9.52;100.00
23867;BME280;12114;53.404;-1.502;2023-12-20T06:00:13;100759.50;;;9.53;100.00
23867;BME280;12114;53.404;-1.502;2023-12-20T06:02:57;100760.78;;;9.67;100.00
23867;BME280;12114;53.404;-1.502;2023-12-20T06:05:41;100749.25;;;9.65;100.00
23867;BME280;12114;53.404;-1.502;2023-12-20T06:08:25;100749.59;;;9.76;100.00
23867;BME280;12114;53.404;-1.502;2023-12-20T06:11:09;100739.66;;;9.75;100.00
23867;BME280;12114;53.404;-1.502;2023-12-20T06:13:53;100746.59;;;9.81;100.00
23867;BME280;12114;53.404;-1.502;2023-12-20T06:16:37;100736.06;;;9.86;100.00
23867;BME280;12114;53.404;-1.502;2023-12-20T06:19:21;100739.09;;;9.81;100.00
23867;BME280;12114;53.404;-1.502;2023-12-20T06:22:05;100737.09;;;9.82;100.00
23867;BME280;12114;53.404;-1.502;2023-12-20T06:24:49;100745.22;;;9.75;100.00
23867;BME280;12114;53.404;-1.502;2023-12-20T06:27:33;100734.00;;;9.83;100.00
23867;BME280;12114;53.404;-1.502;2023-12-20T06:30:17;100758.16;;;9.95;100.00
23867;BME280;12114;53.404;-1.502;2023-12-20T06:33:01;100743.94;;;9.97;100.00
23867;BME280;12114;53.404;-1.502;2023-12-20T06:35:45;100750.41;;;10.01;100.00
23867;BME280;12114;53.404;-1.502;2023-12-20T06:38:28;100731.56;;;9.94;100.00
23867;BME280;12114;53.404;-1.502;2023-12-20T06:41:13;100738.41;;;9.97;100.00
23867;BME280;12114;53.404;-1.502;2023-12-20T06:43:57;100741.16;;;9.84;100.00
23867;BME280;12114;53.404;-1.502;2023-12-20T06:46:41;100760.94;;;9.83;100.00
23867;BME280;12114;53.404;-1.502;2023-12-20T06:49:25;100755.13;;;9.76;100.00
23867;BME280;12114;53.404;-1.502;2023-12-20T06:52:09;100770.72;;;9.56;100.00
23867;BME280;12114;53.404;-1.502;2023-12-20T06:54:54;100756.84;;;9.56;100.00
23867;BME280;12114;53.404;-1.502;2023-12-20T06:57:38;100774.78;;;9.59;100.00
23867;BME280;12114;53.404;-1.502;2023-12-20T07:00:22;100779.50;;;9.58;100.00
23867;BME280;12114;53.404;-1.502;2023-12-20T07:03:06;100783.09;;;9.59;100.00
23867;BME280;12114;53.404;-1.502;2023-12-20T07:05:50;100778.94;;;9.65;100.00
23867;BME280;12114;53.404;-1.502;2023-12-20T07:08:34;100790.41;;;9.75;100.00
23867;BME280;12114;53.404;-1.502;2023-12-20T07:11:18;100787.53;;;9.72;100.00
23867;BME280;12114;53.404;-1.502;2023-12-20T07:14:02;100780.09;;;9.76;100.00
23867;BME280;12114;53.404;-1.502;2023-12-20T07:16:46;100756.19;;;9.71;100.00
23867;BME280;12114;53.404;-1.502;2023-12-20T07:19:30;100788.66;;;9.71;100.00
23867;BME280;12114;53.404;-1.502;2023-12-20T07:22:14;100783.69;;;9.76;100.00
23867;BME280;12114;53.404;-1.502;2023-12-20T07:24:58;100771.75;;;9.64;100.00
23867;BME280;12114;53.404;-1.502;2023-12-20T07:27:43;100782.88;;;9.76;100.00
23867;BME280;12114;53.404;-1.502;2023-12-20T07:30:26;100797.13;;;9.74;100.00
23867;BME280;12114;53.404;-1.502;2023-12-20T07:33:10;100798.38;;;9.65;100.00
23867;BME280;12114;53.404;-1.502;2023-12-20T07:35:55;100794.91;;;9.80;100.00
23867;BME280;12114;53.404;-1.502;2023-12-20T07:38:39;100790.41;;;9.75;100.00
23867;BME280;12114;53.404;-1.502;2023-12-20T07:41:25;100792.28;;;9.83;100.00
23867;BME280;12114;53.404;-1.502;2023-12-20T07:44:09;100797.00;;;9.83;100.00
23867;BME280;12114;53.404;-1.502;2023-12-20T07:46:54;100804.06;;;9.80;100.00
23867;BME280;12114;53.404;-1.502;2023-12-20T07:49:38;100798.06;;;9.91;100.00
23867;BME280;12114;53.404;-1.502;2023-12-20T07:52:22;100808.34;;;9.90;100.00
23867;BME280;12114;53.404;-1.502;2023-12-20T07:55:07;100790.88;;;9.89;100.00
23867;BME280;12114;53.404;-1.502;2023-12-20T07:57:51;100785.44;;;9.81;100.00
23867;BME280;12114;53.404;-1.502;2023-12-20T08:00:35;100789.63;;;9.99;100.00
23867;BME280;12114;53.404;-1.502;2023-12-20T08:03:19;100785.34;;;10.02;100.00
23867;BME280;12114;53.404;-1.502;2023-12-20T08:06:03;100784.28;;;9.94;100.00
23867;BME280;12114;53.404;-1.502;2023-12-20T08:08:51;100784.41;;;10.10;100.00
23867;BME280;12114;53.404;-1.502;2023-12-20T08:11:34;100799.69;;;10.04;100.00
23867;BME280;12114;53.404;-1.502;2023-12-20T08:14:18;100809.19;;;10.03;100.00
23867;BME280;12114;53.404;-1.502;2023-12-20T08:17:03;100802.34;;;10.00;100.00
23867;BME280;12114;53.404;-1.502;2023-12-20T08:19:47;100818.22;;;10.00;100.00
23867;BME280;12114;53.404;-1.502;2023-12-20T08:22:31;100836.81;;;9.99;100.00
23867;BME280;12114;53.404;-1.502;2023-12-20T08:25:15;100825.81;;;9.91;100.00
23867;BME280;12114;53.404;-1.502;2023-12-20T08:27:59;100831.97;;;9.96;100.00
23867;BME280;12114;53.404;-1.502;2023-12-20T08:30:43;100856.38;;;10.03;100.00
23867;BME280;12114;53.404;-1.502;2023-12-20T08:33:26;100843.19;;;10.00;100.00
23867;BME280;12114;53.404;-1.502;2023-12-20T08:36:11;100813.09;;;9.89;100.00
23867;BME280;12114;53.404;-1.502;2023-12-20T08:38:55;100834.25;;;9.94;100.00
23867;BME280;12114;53.404;-1.502;2023-12-20T08:41:39;100828.47;;;9.87;100.00
23867;BME280;12114;53.404;-1.502;2023-12-20T08:44:23;100835.75;;;9.92;100.00
23867;BME280;12114;53.404;-1.502;2023-12-20T08:47:07;100814.84;;;10.06;100.00
23867;BME280;12114;53.404;-1.502;2023-12-20T08:49:51;100838.91;;;10.02;100.00
23867;BME280;12114;53.404;-1.502;2023-12-20T08:52:34;100843.78;;;10.05;100.00
23867;BME280;12114;53.404;-1.502;2023-12-20T08:55:19;100842.72;;;10.10;100.00
23867;BME280;12114;53.404;-1.502;2023-12-20T08:58:03;100849.88;;;9.99;100.00
23867;BME280;12114;53.404;-1.502;2023-12-20T09:00:47;100830.09;;;10.00;100.00
23867;BME280;12114;53.404;-1.502;2023-12-20T09:03:31;100828.63;;;10.03;100.00
23867;BME280;12114;53.404;-1.502;2023-12-20T09:06:15;100843.28;;;10.03;100.00
23867;BME280;12114;53.404;-1.502;2023-12-20T09:08:59;100835.66;;;10.00;100.00
23867;BME280;12114;53.404;-1.502;2023-12-20T09:11:44;100835.34;;;10.14;100.00
23867;BME280;12114;53.404;-1.502;2023-12-20T09:14:30;100840.09;;;10.13;100.00
23867;BME280;12114;53.404;-1.502;2023-12-20T09:17:15;100843.94;;;10.33;100.00
23867;BME280;12114;53.404;-1.502;2023-12-20T09:20:00;100836.50;;;10.25;100.00
23867;BME280;12114;53.404;-1.502;2023-12-20T09:22:44;100816.97;;;10.33;100.00
23867;BME280;12114;53.404;-1.502;2023-12-20T09:25:27;100801.78;;;10.31;100.00
23867;BME280;12114;53.404;-1.502;2023-12-20T09:28:13;100806.44;;;10.39;100.00
23867;BME280;12114;53.404;-1.502;2023-12-20T09:30:56;100805.63;;;10.38;100.00
23867;BME280;12114;53.404;-1.502;2023-12-20T09:33:41;100797.63;;;10.37;100.00
23867;BME280;12114;53.404;-1.502;2023-12-20T09:36:25;100800.06;;;10.38;100.00
23867;BME280;12114;53.404;-1.502;2023-12-20T09:39:10;100804.44;;;10.27;100.00
23867;BME280;12114;53.404;-1.502;2023-12-20T09:44:47;100808.16;;;10.43;100.00
23867;BME280;12114;53.404;-1.502;2023-12-20T09:47:32;100816.59;;;10.47;100.00
23867;BME280;12114;53.404;-1.502;2023-12-20T09:50:18;100814.25;;;10.61;100.00
23867;BME280;12114;53.404;-1.502;2023-12-20T09:53:04;100809.88;;;10.60;100.00
23867;BME280;12114;53.404;-1.502;2023-12-20T09:55:53;100810.34;;;10.62;100.00
23867;BME280;12114;53.404;-1.502;2023-12-20T09:58:37;100818.69;;;10.50;100.00
23867;BME280;12114;53.404;-1.502;2023-12-20T10:01:23;100827.47;;;10.64;100.00
23867;BME280;12114;53.404;-1.502;2023-12-20T10:04:12;100824.47;;;10.69;100.00
23867;BME280;12114;53.404;-1.502;2023-12-20T10:07:02;100821.31;;;10.71;100.00
23867;BME280;12114;53.404;-1.502;2023-12-20T10:09:48;100815.19;;;10.65;100.00
23867;BME280;12114;53.404;-1.502;2023-12-20T10:12:32;100825.63;;;10.68;100.00
23867;BME280;12114;53.404;-1.502;2023-12-20T10:15:16;100820.88;;;10.69;100.00
23867;BME280;12114;53.404;-1.502;2023-12-20T10:18:08;100814.84;;;10.79;100.00
23867;BME280;12114;53.404;-1.502;2023-12-20T10:20:52;100803.72;;;10.79;100.00
23867;BME280;12114;53.404;-1.502;2023-12-20T10:23:37;100800.25;;;10.82;100.00
23867;BME280;12114;53.404;-1.502;2023-12-20T10:26:25;100781.66;;;10.86;100.00
23867;BME280;12114;53.404;-1.502;2023-12-20T10:29:10;100782.38;;;10.83;100.00
23867;BME280;12114;53.404;-1.502;2023-12-20T10:31:54;100784.97;;;11.04;100.00
23867;BME280;12114;53.404;-1.502;2023-12-20T10:34:41;100784.19;;;11.03;100.00
23867;BME280;12114;53.404;-1.502;2023-12-20T10:37:25;100770.41;;;10.94;100.00
23867;BME280;12114;53.404;-1.502;2023-12-20T10:40:09;100751.16;;;11.02;100.00
23867;BME280;12114;53.404;-1.502;2023-12-20T10:42:58;100748.88;;;10.91;100.00
23867;BME280;12114;53.404;-1.502;2023-12-20T10:45:42;100729.72;;;11.02;100.00
23867;BME280;12114;53.404;-1.502;2023-12-20T10:48:28;100737.25;;;11.02;100.00
23867;BME280;12114;53.404;-1.502;2023-12-20T10:51:17;100732.72;;;11.09;100.00
23867;BME280;12114;53.404;-1.502;2023-12-20T10:54:02;100721.50;;;11.06;100.00
23867;BME280;12114;53.404;-1.502;2023-12-20T10:56:48;100729.56;;;11.11;100.00
23867;BME280;12114;53.404;-1.502;2023-12-20T10:59:39;100725.31;;;11.01;100.00
23867;BME280;12114;53.404;-1.502;2023-12-20T11:02:25;100706.28;;;11.15;100.00
23867;BME280;12114;53.404;-1.502;2023-12-20T11:14:42;100679.25;;;11.16;100.00
23867;BME280;12114;53.404;-1.502;2023-12-20T11:17:27;100667.78;;;11.17;100.00
23867;BME280;12114;53.404;-1.502;2023-12-20T11:20:12;100652.63;;;11.15;100.00
23867;BME280;12114;53.404;-1.502;2023-12-20T11:22:57;100641.41;;;11.27;100.00
23867;BME280;12114;53.404;-1.502;2023-12-20T11:25:53;100617.34;;;11.34;100.00
23867;BME280;12114;53.404;-1.502;2023-12-20T11:28:37;100599.16;;;11.21;100.00
23867;BME280;12114;53.404;-1.502;2023-12-20T11:31:21;100611.88;;;11.22;100.00
23867;BME280;12114;53.404;-1.502;2023-12-20T11:34:17;100608.03;;;11.27;100.00
23867;BME280;12114;53.404;-1.502;2023-12-20T11:37:02;100601.75;;;11.30;100.00
23867;BME280;12114;53.404;-1.502;2023-12-20T11:39:59;100597.81;;;11.15;100.00
23867;BME280;12114;53.404;-1.502;2023-12-20T11:42:45;100590.19;;;11.12;100.00
23867;BME280;12114;53.404;-1.502;2023-12-20T11:45:32;100580.50;;;11.06;100.00
23867;BME280;12114;53.404;-1.502;2023-12-20T11:48:16;100578.88;;;11.05;100.00
23867;BME280;12114;53.404;-1.502;2023-12-20T11:51:00;100581.66;;;11.05;100.00
23867;BME280;12114;53.404;-1.502;2023-12-20T11:53:44;100570.53;;;11.05;100.00
23867;BME280;12114;53.404;-1.502;2023-12-20T11:56:28;100554.19;;;11.04;100.00
23867;BME280;12114;53.404;-1.502;2023-12-20T11:59:12;100551.16;;;11.09;100.00
23867;BME280;12114;53.404;-1.502;2023-12-20T12:01:58;100529.34;;;11.11;100.00
23867;BME280;12114;53.404;-1.502;2023-12-20T12:04:44;100535.09;;;11.02;100.00
23867;BME280;12114;53.404;-1.502;2023-12-20T12:07:28;100519.47;;;11.13;100.00
23867;BME280;12114;53.404;-1.502;2023-12-20T12:10:13;100516.25;;;11.11;100.00
23867;BME280;12114;53.404;-1.502;2023-12-20T12:12:56;100524.41;;;11.04;100.00
23867;BME280;12114;53.404;-1.502;2023-12-20T12:15:40;100520.38;;;11.17;100.00
23867;BME280;12114;53.404;-1.502;2023-12-20T12:18:26;100517.31;;;11.22;100.00
23867;BME280;12114;53.404;-1.502;2023-12-20T12:21:10;100504.66;;;11.25;100.00
23867;BME280;12114;53.404;-1.502;2023-12-20T12:24:06;100494.19;;;11.53;100.00
23867;BME280;12114;53.404;-1.502;2023-12-20T12:26:51;100483.91;;;11.38;100.00
23867;BME280;12114;53.404;-1.502;2023-12-20T12:29:36;100469.56;;;11.36;100.00
23867;BME280;12114;53.404;-1.502;2023-12-20T12:32:20;100484.63;;;11.35;100.00
23867;BME280;12114;53.404;-1.502;2023-12-20T12:35:05;100476.16;;;11.47;100.00
23867;BME280;12114;53.404;-1.502;2023-12-20T12:37:51;100471.03;;;11.49;100.00
23867;BME280;12114;53.404;-1.502;2023-12-20T12:40:35;100472.53;;;11.62;100.00
23867;BME280;12114;53.404;-1.502;2023-12-20T12:43:20;100463.16;;;11.51;100.00
23867;BME280;12114;53.404;-1.502;2023-12-20T12:46:06;100463.16;;;11.51;100.00
23867;BME280;12114;53.404;-1.502;2023-12-20T12:48:50;100453.81;;;11.43;100.00
23867;BME280;12114;53.404;-1.502;2023-12-20T12:51:34;100444.41;;;11.48;100.00
23867;BME280;12114;53.404;-1.502;2023-12-20T12:54:18;100454.59;;;11.60;100.00
23867;BME280;12114;53.404;-1.502;2023-12-20T12:57:02;100435.00;;;11.37;100.00
23867;BME280;12114;53.404;-1.502;2023-12-20T12:59:46;100422.72;;;11.38;100.00
23867;BME280;12114;53.404;-1.502;2023-12-20T13:02:30;100421.19;;;11.60;100.00
23867;BME280;12114;53.404;-1.502;2023-12-20T13:05:14;100419.88;;;11.53;100.00
23867;BME280;12114;53.404;-1.502;2023-12-20T13:07:58;100421.53;;;11.58;100.00
23867;BME280;12114;53.404;-1.502;2023-12-20T13:10:42;100426.53;;;11.49;100.00
23867;BME280;12114;53.404;-1.502;2023-12-20T13:13:27;100426.25;;;11.54;100.00
23867;BME280;12114;53.404;-1.502;2023-12-20T13:16:11;100419.44;;;11.51;100.00
23867;BME280;12114;53.404;-1.502;2023-12-20T13:18:55;100407.00;;;11.45;100.00
23867;BME280;12114;53.404;-1.502;2023-12-20T13:21:40;100409.03;;;11.29;100.00
23867;BME280;12114;53.404;-1.502;2023-12-20T13:24:24;100410.78;;;11.37;100.00
23867;BME280;12114;53.404;-1.502;2023-12-20T13:27:08;100421.63;;;11.42;100.00
23867;BME280;12114;53.404;-1.502;2023-12-20T13:29:53;100416.94;;;11.46;100.00
23867;BME280;12114;53.404;-1.502;2023-12-20T13:32:40;100401.44;;;11.45;100.00
23867;BME280;12114;53.404;-1.502;2023-12-20T13:35:24;100394.41;;;11.51;100.00
23867;BME280;12114;53.404;-1.502;2023-12-20T13:38:08;100387.00;;;11.59;100.00
23867;BME280;12114;53.404;-1.502;2023-12-20T13:40:52;100381.66;;;11.50;100.00
23867;BME280;12114;53.404;-1.502;2023-12-20T13:43:36;100370.03;;;11.64;100.00
23867;BME280;12114;53.404;-1.502;2023-12-20T13:46:20;100376.16;;;11.54;100.00
23867;BME280;12114;53.404;-1.502;2023-12-20T13:49:04;100365.38;;;11.52;100.00
23867;BME280;12114;53.404;-1.502;2023-12-20T13:51:49;100352.59;;;11.48;100.00
23867;BME280;12114;53.404;-1.502;2023-12-20T13:54:33;100341.38;;;11.64;100.00
23867;BME280;12114;53.404;-1.502;2023-12-20T13:57:17;100354.19;;;11.49;100.00
23867;BME280;12114;53.404;-1.502;2023-12-20T14:00:01;100338.22;;;11.65;100.00
23867;BME280;12114;53.404;-1.502;2023-12-20T14:02:45;100323.13;;;11.66;100.00
23867;BME280;12114;53.404;-1.502;2023-12-20T14:05:31;100330.69;;;11.46;100.00
23867;BME280;12114;53.404;-1.502;2023-12-20T14:08:15;100323.38;;;11.38;100.00
23867;BME280;12114;53.404;-1.502;2023-12-20T14:10:59;100334.44;;;11.54;100.00
23867;BME280;12114;53.404;-1.502;2023-12-20T14:13:45;100334.19;;;11.43;100.00
23867;BME280;12114;53.404;-1.502;2023-12-20T14:16:29;100322.78;;;11.48;100.00